Time;durP1;ratioP1;P1;durP2;ratioP2;P2;SDS_P1;SDS_P2;PMS_P1;PMS_P2;Temp;Humidity;BMP_temperature;BMP_pressure;BME280_temperature;BME280_humidity;BME280_pressure;Samples;Min_cycle;Max_cycle;Signal;HPM_P1;HPM_P2
2021/07/04 00:01:23;;;;;;;14.50;9.73;;;18.80;89.20;;;;;;5095424;28;20067;-38
2021/07/04 00:03:49;;;;;;;12.05;10.02;;;18.80;88.60;;;;;;5095416;28;20390;-38
2021/07/04 00:06:14;;;;;;;14.57;8.15;;;19.00;88.30;;;;;;5095764;28;20479;-37
2021/07/04 00:08:40;;;;;;;10.88;8.35;;;18.90;87.90;;;;;;5095678;28;20027;-37
2021/07/04 00:11:09;;;;;;;23.85;12.52;;;18.90;87.50;;;;;;5095332;28;20020;-38
2021/07/04 00:13:36;;;;;;;16.80;9.73;;;19.20;86.90;;;;;;5095288;28;20035;-37
2021/07/04 00:16:02;;;;;;;13.18;8.88;;;19.20;86.20;;;;;;5077150;28;20396;-37
2021/07/04 00:18:30;;;;;;;9.27;8.23;;;19.00;85.70;;;;;;5095028;28;20027;-37
2021/07/04 00:20:57;;;;;;;9.35;7.97;;;19.10;85.10;;;;;;5095330;28;20032;-37
2021/07/04 00:23:24;;;;;;;11.60;9.13;;;18.90;86.40;;;;;;5077058;28;20023;-37
2021/07/04 00:25:51;;;;;;;13.90;9.35;;;18.80;86.90;;;;;;5095095;28;20052;-38
2021/07/04 00:28:17;;;;;;;11.20;8.73;;;18.80;86.50;;;;;;5095121;28;20380;-37
2021/07/04 00:30:43;;;;;;;13.90;9.00;;;18.90;85.60;;;;;;5095275;28;20023;-37
2021/07/04 00:33:09;;;;;;;10.52;8.55;;;19.00;84.90;;;;;;5095242;28;20031;-37
2021/07/04 00:35:35;;;;;;;13.45;9.82;;;19.00;84.70;;;;;;5094857;28;20453;-37
2021/07/04 00:38:02;;;;;;;12.27;8.77;;;18.90;85.40;;;;;;5077286;28;20031;-37
2021/07/04 00:40:28;;;;;;;12.35;9.93;;;18.80;86.50;;;;;;5095089;28;20476;-38
2021/07/04 00:42:54;;;;;;;11.30;8.70;;;18.80;86.60;;;;;;5076544;28;20138;-37
2021/07/04 00:45:24;;;;;;;11.48;9.55;;;18.60;86.90;;;;;;5076443;28;20016;-37
2021/07/04 00:47:51;;;;;;;13.38;9.20;;;18.70;87.20;;;;;;5094664;28;20143;-37
2021/07/04 00:50:19;;;;;;;13.30;9.55;;;18.70;87.40;;;;;;5094923;28;20027;-37
2021/07/04 00:52:45;;;;;;;15.02;10.35;;;18.80;87.60;;;;;;5094592;28;20020;-37
2021/07/04 00:55:13;;;;;;;18.60;12.00;;;18.70;87.80;;;;;;5094830;28;20360;-37
2021/07/04 00:57:38;;;;;;;14.63;10.63;;;18.70;87.70;;;;;;5094776;28;20024;-38
2021/07/04 01:00:08;;;;;;;13.70;10.65;;;18.60;88.50;;;;;;5094917;28;20024;-38
2021/07/04 01:02:34;;;;;;;15.43;9.43;;;18.70;88.20;;;;;;5093041;28;20035;-38
2021/07/04 01:05:00;;;;;;;12.15;10.02;;;18.70;87.90;;;;;;5093915;28;20028;-38
2021/07/04 01:07:26;;;;;;;13.50;10.20;;;18.70;88.40;;;;;;5094201;28;20016;-37
2021/07/04 01:09:52;;;;;;;15.25;10.88;;;18.60;88.60;;;;;;5094219;28;20028;-37
2021/07/04 01:12:18;;;;;;;13.05;10.45;;;18.60;88.60;;;;;;5094378;28;20042;-37
2021/07/04 01:14:44;;;;;;;14.77;10.20;;;18.60;88.90;;;;;;5094016;28;20139;-37
2021/07/04 01:17:09;;;;;;;16.38;10.57;;;18.40;89.30;;;;;;5094396;28;20028;-37
2021/07/04 01:19:35;;;;;;;15.43;11.65;;;18.40;89.80;;;;;;5075866;28;20028;-37
2021/07/04 01:22:03;;;;;;;16.45;12.30;;;18.40;89.70;;;;;;5075749;28;20030;-37
2021/07/04 01:24:29;;;;;;;14.48;11.43;;;18.50;89.70;;;;;;5075660;28;20025;-37
2021/07/04 01:26:54;;;;;;;15.73;12.15;;;18.40;89.00;;;;;;5093929;28;20383;-38
2021/07/04 01:29:20;;;;;;;16.48;11.35;;;18.50;89.30;;;;;;5094254;28;20558;-37
2021/07/04 01:31:47;;;;;;;13.32;10.32;;;18.50;88.60;;;;;;5093967;28;20444;-41
2021/07/04 01:34:12;;;;;;;14.65;10.90;;;18.60;89.00;;;;;;5093744;28;20083;-37
2021/07/04 01:36:40;;;;;;;13.63;10.75;;;18.50;87.90;;;;;;5093679;28;20440;-37
2021/07/04 01:39:06;;;;;;;14.18;9.40;;;18.50;87.30;;;;;;5093876;28;20103;-37
2021/07/04 01:41:35;;;;;;;13.20;10.82;;;18.70;87.70;;;;;;5093889;28;20463;-37
2021/07/04 01:44:01;;;;;;;14.25;10.80;;;18.70;87.60;;;;;;5093770;28;20024;-37
2021/07/04 01:46:27;;;;;;;12.30;10.95;;;18.70;88.20;;;;;;5075453;28;20498;-37
2021/07/04 01:48:52;;;;;;;14.98;11.15;;;18.70;88.40;;;;;;5093634;28;20034;-37
2021/07/04 01:51:19;;;;;;;16.33;11.75;;;18.70;88.80;;;;;;5093556;28;20036;-37
2021/07/04 01:53:44;;;;;;;16.63;12.23;;;18.80;89.00;;;;;;5075239;28;20032;-37
2021/07/04 01:56:10;;;;;;;19.00;12.70;;;18.80;89.00;;;;;;5093826;28;20107;-37
2021/07/04 01:58:38;;;;;;;14.93;12.43;;;18.80;88.90;;;;;;5093739;28;20028;-37
2021/07/04 02:01:06;;;;;;;16.27;10.60;;;18.80;88.30;;;;;;5093673;28;20024;-37
2021/07/04 02:03:32;;;;;;;14.27;11.27;;;18.70;88.30;;;;;;5093287;28;20039;-38
2021/07/04 02:05:58;;;;;;;14.48;11.60;;;18.60;88.50;;;;;;5093627;28;20436;-37
2021/07/04 02:08:24;;;;;;;15.00;11.00;;;18.60;88.70;;;;;;5093294;28;20472;-37
2021/07/04 02:10:50;;;;;;;17.65;10.80;;;18.50;89.00;;;;;;5093543;28;20032;-37
2021/07/04 02:13:15;;;;;;;14.77;10.40;;;18.50;89.30;;;;;;5093261;28;20024;-37
2021/07/04 02:15:42;;;;;;;12.90;10.40;;;18.50;88.50;;;;;;5094041;28;20062;-38
2021/07/04 02:18:15;;;;;;;17.90;10.80;;;18.50;88.20;;;;;;5097691;28;20028;-37
2021/07/04 02:20:53;;;;;;;15.57;12.15;;;18.60;88.30;;;;;;5097418;28;20032;-37
2021/07/04 02:23:28;;;;;;;17.23;12.02;;;18.60;87.90;;;;;;5097530;28;20476;-38
2021/07/04 02:25:54;;;;;;;16.70;12.75;;;18.60;88.10;;;;;;5097618;28;20039;-37
2021/07/04 02:28:23;;;;;;;15.80;11.20;;;18.50;88.10;;;;;;5097282;28;20098;-38
2021/07/04 02:30:50;;;;;;;18.13;13.13;;;18.50;88.10;;;;;;5097116;28;20031;-44
2021/07/04 02:33:18;;;;;;;16.98;11.68;;;18.50;87.80;;;;;;5097249;28;20020;-37
2021/07/04 02:35:50;;;;;;;13.38;10.40;;;18.50;88.00;;;;;;5096931;28;20450;-38
2021/07/04 02:38:16;;;;;;;14.25;11.00;;;18.50;88.30;;;;;;5096933;28;20103;-37
2021/07/04 02:40:44;;;;;;;14.15;11.63;;;18.40;88.30;;;;;;5078762;28;20024;-37
2021/07/04 02:43:12;;;;;;;14.63;11.48;;;18.40;88.50;;;;;;5097097;28;20024;-37
2021/07/04 02:45:38;;;;;;;19.92;11.82;;;18.40;88.70;;;;;;5097264;28;20058;-38
2021/07/04 02:48:06;;;;;;;18.20;11.63;;;18.50;87.80;;;;;;5096950;28;20035;-37
2021/07/04 02:50:31;;;;;;;12.63;10.95;;;18.50;87.80;;;;;;5096918;28;20024;-37
2021/07/04 02:52:57;;;;;;;15.18;11.20;;;18.50;88.20;;;;;;5097112;28;20434;-38
2021/07/04 02:55:23;;;;;;;14.32;10.40;;;18.40;88.30;;;;;;5096858;28;20035;-37
2021/07/04 02:57:50;;;;;;;14.13;9.70;;;18.50;88.10;;;;;;5097076;28;20044;-37
2021/07/04 03:00:19;;;;;;;15.35;10.63;;;18.50;87.40;;;;;;5096784;28;20454;-37
2021/07/04 03:02:45;;;;;;;13.63;10.32;;;18.60;87.60;;;;;;5096609;28;20470;-38
2021/07/04 03:05:11;;;;;;;15.82;11.95;;;18.80;86.20;;;;;;5078370;28;20430;-38
2021/07/04 03:07:38;;;;;;;12.05;10.23;;;18.70;87.10;;;;;;5096804;28;20020;-37
2021/07/04 03:10:10;;;;;;;11.38;10.02;;;18.50;87.40;;;;;;5096438;28;20035;-37
2021/07/04 03:12:36;;;;;;;11.82;10.07;;;18.50;87.70;;;;;;5097429;28;20074;-37
2021/07/04 03:15:04;;;;;;;14.98;11.07;;;18.60;87.30;;;;;;5096454;28;20039;-41
2021/07/04 03:17:29;;;;;;;12.68;10.68;;;18.70;87.50;;;;;;5096611;28;20020;-37
2021/07/04 03:19:55;;;;;;;17.23;11.48;;;18.70;87.30;;;;;;5096218;28;20028;-37
2021/07/04 03:22:21;;;;;;;15.15;10.50;;;18.70;87.30;;;;;;5078010;28;20135;-37
2021/07/04 03:24:46;;;;;;;16.63;10.70;;;18.60;87.60;;;;;;5094888;28;20364;-37
2021/07/04 03:27:12;;;;;;;13.27;10.27;;;18.60;87.30;;;;;;5096107;28;20020;-38
2021/07/04 03:29:38;;;;;;;12.85;9.98;;;18.80;86.30;;;;;;5096400;28;20376;-37
2021/07/04 03:32:04;;;;;;;14.65;11.02;;;18.60;87.10;;;;;;5096349;28;20028;-37
2021/07/04 03:34:30;;;;;;;17.75;11.23;;;18.60;87.40;;;;;;5095940;28;20507;-37
2021/07/04 03:36:56;;;;;;;17.95;11.02;;;18.60;87.50;;;;;;5095945;28;20031;-36
2021/07/04 03:39:23;;;;;;;11.27;10.05;;;18.60;87.20;;;;;;5096645;28;20055;-36
2021/07/04 03:41:49;;;;;;;19.30;10.98;;;18.60;87.30;;;;;;5096143;28;20028;-36
2021/07/04 03:44:15;;;;;;;12.65;10.30;;;18.60;87.20;;;;;;5077571;28;20028;-36
2021/07/04 03:46:41;;;;;;;13.00;9.88;;;18.60;87.50;;;;;;5095733;28;20016;-36
2021/07/04 03:49:07;;;;;;;15.40;11.20;;;18.60;87.70;;;;;;5095676;28;20357;-36
2021/07/04 03:51:32;;;;;;;12.65;10.18;;;18.60;87.70;;;;;;5095673;28;20016;-36
2021/07/04 03:53:58;;;;;;;15.32;11.15;;;18.70;87.50;;;;;;5095908;28;20050;-36
2021/07/04 03:56:24;;;;;;;14.18;9.77;;;18.60;87.40;;;;;;5095571;28;20025;-36
2021/07/04 03:58:50;;;;;;;12.45;11.15;;;18.60;87.50;;;;;;5096061;28;20020;-37
2021/07/04 04:01:22;;;;;;;14.55;10.13;;;18.70;87.70;;;;;;5095758;28;20020;-36
2021/07/04 04:03:49;;;;;;;15.88;11.52;;;18.80;87.20;;;;;;5078271;28;20068;-36
2021/07/04 04:06:16;;;;;;;17.80;11.63;;;18.70;86.80;;;;;;5077199;28;20463;-36
2021/07/04 04:08:43;;;;;;;15.57;10.73;;;18.70;87.50;;;;;;5095276;28;20023;-37
2021/07/04 04:11:11;;;;;;;14.95;12.00;;;18.70;87.90;;;;;;5095329;28;20026;-36
2021/07/04 04:13:37;;;;;;;13.57;10.65;;;18.70;87.40;;;;;;5095782;28;20506;-36
2021/07/04 04:16:03;;;;;;;12.63;9.40;;;18.60;87.70;;;;;;5095544;28;20441;-36
2021/07/04 04:18:29;;;;;;;11.27;10.05;;;18.60;87.50;;;;;;5077061;28;20046;-37
2021/07/04 04:20:56;;;;;;;12.10;10.38;;;18.60;88.00;;;;;;5095417;28;20107;-36
2021/07/04 04:23:23;;;;;;;16.00;12.50;;;18.60;88.30;;;;;;5076905;28;20024;-36
2021/07/04 04:25:49;;;;;;;14.13;11.65;;;18.90;87.60;;;;;;5094956;28;20031;-36
2021/07/04 04:28:15;;;;;;;15.35;12.23;;;19.00;87.20;;;;;;5095434;28;20035;-36
2021/07/04 04:30:40;;;;;;;20.50;12.43;;;19.10;87.00;;;;;;5094848;28;20016;-36
2021/07/04 04:33:06;;;;;;;19.48;13.35;;;19.10;86.60;;;;;;5094864;28;20099;-36
2021/07/04 04:35:32;;;;;;;15.00;11.82;;;18.80;87.30;;;;;;5094690;28;20127;-36
2021/07/04 04:37:57;;;;;;;13.68;10.15;;;18.80;87.60;;;;;;5094712;28;20425;-36
2021/07/04 04:40:23;;;;;;;14.73;10.93;;;18.80;87.30;;;;;;5076302;28;20028;-36
2021/07/04 04:42:49;;;;;;;14.25;10.68;;;18.70;87.30;;;;;;5094838;28;20020;-37
2021/07/04 04:45:15;;;;;;;15.52;11.52;;;18.80;87.20;;;;;;5094720;28;20036;-36
2021/07/04 04:47:41;;;;;;;18.45;11.32;;;18.80;87.10;;;;;;5095032;28;20035;-36
2021/07/04 04:50:08;;;;;;;17.65;12.15;;;18.80;87.30;;;;;;5095901;28;20024;-36
2021/07/04 04:52:34;;;;;;;14.13;11.40;;;18.90;87.40;;;;;;5094657;28;20039;-36
2021/07/04 04:55:00;;;;;;;39.97;14.40;;;18.90;86.70;;;;;;5094716;28;20036;-37
2021/07/04 04:57:26;;;;;;;15.07;10.75;;;19.00;86.40;;;;;;5094625;28;20024;-38
2021/07/04 04:59:52;;;;;;;11.93;10.45;;;19.00;86.40;;;;;;5094662;28;20052;-36
2021/07/04 05:02:17;;;;;;;14.32;10.63;;;19.10;85.70;;;;;;5094513;28;20027;-39
2021/07/04 05:04:43;;;;;;;14.50;11.23;;;19.00;86.00;;;;;;5094280;28;20035;-36
2021/07/04 05:07:09;;;;;;;14.68;10.95;;;18.90;86.20;;;;;;5094287;28;20020;-37
2021/07/04 05:09:35;;;;;;;12.57;10.57;;;18.90;86.10;;;;;;5094186;28;20052;-38
2021/07/04 05:12:02;;;;;;;14.75;10.35;;;19.10;86.10;;;;;;5094472;28;20047;-37
2021/07/04 05:14:27;;;;;;;12.32;10.82;;;18.80;86.80;;;;;;5094039;28;20031;-36
2021/07/04 05:16:53;;;;;;;19.77;11.32;;;18.80;87.10;;;;;;5094374;28;20043;-37
2021/07/04 05:19:19;;;;;;;15.35;10.73;;;18.70;88.20;;;;;;5092664;28;20032;-36
2021/07/04 05:21:44;;;;;;;12.90;10.30;;;18.80;86.90;;;;;;5094616;28;20031;-37
2021/07/04 05:24:12;;;;;;;15.20;11.52;;;18.90;87.20;;;;;;5093820;28;20056;-37
2021/07/04 05:26:38;;;;;;;13.63;10.93;;;19.00;86.20;;;;;;5094156;28;20481;-37
2021/07/04 05:29:04;;;;;;;16.20;12.32;;;18.80;88.60;;;;;;5093903;28;20024;-37
2021/07/04 05:31:30;;;;;;;13.85;12.05;;;18.90;87.40;;;;;;5075670;28;20073;-37
2021/07/04 05:33:56;;;;;;;20.13;13.73;;;18.70;88.40;;;;;;5094111;28;20411;-37
2021/07/04 05:36:23;;;;;;;17.00;12.77;;;18.60;88.90;;;;;;5093737;28;20099;-37
2021/07/04 05:38:49;;;;;;;17.65;11.50;;;18.50;89.10;;;;;;5075562;28;20035;-36
2021/07/04 05:41:15;;;;;;;15.40;11.95;;;18.50;89.50;;;;;;5093730;28;20032;-36
2021/07/04 05:43:43;;;;;;;16.88;12.07;;;18.50;90.00;;;;;;5092291;28;20106;-36
2021/07/04 05:46:09;;;;;;;19.30;14.35;;;18.50;90.50;;;;;;5093384;28;20361;-36
2021/07/04 05:48:36;;;;;;;17.50;13.82;;;18.60;90.90;;;;;;5093587;28;20038;-37
2021/07/04 05:51:02;;;;;;;18.50;13.50;;;18.70;90.50;;;;;;5074334;28;20020;-37
2021/07/04 05:53:28;;;;;;;18.17;13.75;;;19.00;89.00;;;;;;5093505;28;20521;-37
2021/07/04 05:55:54;;;;;;;15.70;13.55;;;19.20;89.00;;;;;;5093487;28;20028;-37
2021/07/04 05:58:20;;;;;;;19.55;14.13;;;19.20;88.00;;;;;;5093486;28;20104;-38
2021/07/04 06:00:47;;;;;;;18.92;14.55;;;19.00;88.30;;;;;;5093384;28;20039;-36
2021/07/04 06:03:12;;;;;;;16.27;14.13;;;19.00;88.20;;;;;;5093178;28;20050;-36
2021/07/04 06:05:38;;;;;;;18.60;14.50;;;19.00;88.40;;;;;;5093152;28;20016;-37
2021/07/04 06:08:04;;;;;;;19.27;14.98;;;19.10;88.10;;;;;;5093157;28;20032;-38
2021/07/04 06:10:30;;;;;;;20.35;15.95;;;19.10;88.00;;;;;;5093428;28;20104;-41
2021/07/04 06:12:56;;;;;;;19.73;14.48;;;19.20;88.00;;;;;;5093690;28;20021;-37
2021/07/04 06:15:22;;;;;;;18.92;15.02;;;19.30;87.50;;;;;;5093667;28;20027;-37
2021/07/04 06:17:47;;;;;;;15.43;13.30;;;19.20;87.90;;;;;;5093412;28;20093;-36
2021/07/04 06:20:16;;;;;;;17.95;13.75;;;19.20;87.60;;;;;;5093483;28;20024;-37
2021/07/04 06:22:44;;;;;;;16.08;13.10;;;19.20;88.50;;;;;;5093678;28;20052;-37
2021/07/04 06:25:11;;;;;;;17.05;14.20;;;19.30;87.40;;;;;;5093322;28;20024;-36
2021/07/04 06:27:39;;;;;;;19.98;14.02;;;19.30;87.80;;;;;;5093356;28;20020;-36
2021/07/04 06:30:08;;;;;;;19.48;14.60;;;19.10;89.00;;;;;;5093485;28;20060;-37
2021/07/04 06:32:33;;;;;;;21.27;14.23;;;19.30;88.70;;;;;;5093312;28;20028;-38
2021/07/04 06:34:59;;;;;;;21.75;15.45;;;19.60;87.00;;;;;;5093033;28;20518;-37
2021/07/04 06:37:24;;;;;;;17.92;12.77;;;19.50;86.10;;;;;;5058433;28;20040;-37
2021/07/04 06:39:50;;;;;;;16.30;13.45;;;19.30;86.10;;;;;;5093083;28;20031;-37
2021/07/04 06:42:16;;;;;;;15.90;13.02;;;19.40;87.70;;;;;;5093215;28;20031;-37
2021/07/04 06:44:42;;;;;;;18.63;13.70;;;19.50;87.30;;;;;;5093213;28;20128;-37
2021/07/04 06:47:07;;;;;;;17.48;13.95;;;19.50;85.70;;;;;;5093583;28;20043;-37
2021/07/04 06:49:33;;;;;;;17.33;13.10;;;19.80;84.60;;;;;;5093031;28;20028;-37
2021/07/04 06:51:59;;;;;;;15.70;13.52;;;20.10;84.90;;;;;;5092356;28;20028;-37
2021/07/04 06:54:24;;;;;;;18.77;13.90;;;20.30;83.70;;;;;;5093415;28;20028;-44
2021/07/04 06:56:50;;;;;;;17.20;12.93;;;20.20;84.30;;;;;;5075403;28;20027;-42
2021/07/04 06:59:16;;;;;;;14.27;12.52;;;20.50;83.40;;;;;;5092754;28;20103;-38
2021/07/04 07:01:41;;;;;;;15.10;12.85;;;20.30;82.60;;;;;;5093542;28;20391;-35
2021/07/04 07:04:07;;;;;;;16.13;12.23;;;20.20;83.90;;;;;;5096199;28;20032;-35
2021/07/04 07:06:33;;;;;;;17.65;13.00;;;20.10;84.20;;;;;;5096327;28;20463;-36
2021/07/04 07:08:58;;;;;;;15.48;12.85;;;20.00;85.20;;;;;;5096620;28;20091;-36
2021/07/04 07:11:24;;;;;;;14.18;11.57;;;20.00;85.30;;;;;;5097303;28;20020;-36
2021/07/04 07:13:50;;;;;;;17.98;12.02;;;20.30;84.60;;;;;;5096978;28;20384;-36
2021/07/04 07:16:15;;;;;;;16.73;12.80;;;20.30;83.00;;;;;;5095399;28;20039;-36
2021/07/04 07:18:41;;;;;;;18.40;14.60;;;20.50;83.00;;;;;;5096870;28;20473;-36
2021/07/04 07:21:07;;;;;;;19.23;12.60;;;20.40;82.20;;;;;;5096526;28;20095;-37
2021/07/04 07:23:33;;;;;;;19.08;12.57;;;20.40;81.40;;;;;;5096548;28;20111;-37
2021/07/04 07:25:58;;;;;;;15.45;13.55;;;20.50;82.20;;;;;;5096306;28;20051;-37
2021/07/04 07:28:24;;;;;;;16.77;14.52;;;20.40;81.50;;;;;;5096159;28;20049;-37
2021/07/04 07:30:50;;;;;;;20.55;13.05;;;20.40;82.10;;;;;;5096358;28;20043;-38
2021/07/04 07:33:16;;;;;;;21.50;13.15;;;21.40;78.00;;;;;;5096356;28;20024;-37
2021/07/04 07:35:42;;;;;;;15.48;12.15;;;21.80;76.50;;;;;;5095997;28;20040;-43
2021/07/04 07:38:10;;;;;;;15.48;12.18;;;21.30;78.80;;;;;;5096200;28;20028;-38
2021/07/04 07:40:37;;;;;;;16.55;12.88;;;21.30;79.20;;;;;;5078224;28;20021;-38
2021/07/04 07:43:06;;;;;;;15.52;12.48;;;21.30;79.80;;;;;;5096169;28;20103;-36
2021/07/04 07:45:32;;;;;;;17.10;12.55;;;21.50;79.70;;;;;;5096046;28;20480;-36
2021/07/04 07:47:58;;;;;;;15.18;11.77;;;21.90;77.70;;;;;;5095841;28;20024;-36
2021/07/04 07:50:23;;;;;;;16.55;12.82;;;21.80;76.90;;;;;;5096055;28;20421;-36
2021/07/04 07:52:49;;;;;;;19.95;13.77;;;21.60;78.60;;;;;;5095691;28;20042;-38
2021/07/04 07:55:15;;;;;;;17.77;13.75;;;21.50;79.00;;;;;;5095749;28;20031;-36
2021/07/04 07:57:41;;;;;;;19.85;14.30;;;21.70;78.60;;;;;;5095699;28;20024;-36
2021/07/04 08:00:09;;;;;;;20.30;15.20;;;21.70;77.70;;;;;;5095857;28;20525;-37
2021/07/04 08:02:35;;;;;;;19.95;14.77;;;21.60;79.00;;;;;;5077241;28;20479;-36
2021/07/04 08:05:01;;;;;;;21.30;15.85;;;22.30;76.10;;;;;;5095570;28;20031;-36
2021/07/04 08:07:27;;;;;;;16.98;13.40;;;22.20;75.80;;;;;;5095740;28;20028;-36
2021/07/04 08:09:52;;;;;;;16.73;14.43;;;22.50;74.90;;;;;;5095433;28;20020;-36
2021/07/04 08:12:18;;;;;;;20.00;15.75;;;22.50;74.70;;;;;;5076744;28;20024;-38
2021/07/04 08:14:43;;;;;;;19.60;14.98;;;22.80;74.00;;;;;;5094259;28;20077;-37
2021/07/04 08:17:09;;;;;;;18.20;14.85;;;23.40;71.20;;;;;;5076651;28;20020;-36
2021/07/04 08:19:35;;;;;;;21.60;16.00;;;23.50;71.20;;;;;;5095255;28;20028;-38
2021/07/04 08:22:02;;;;;;;26.25;18.33;;;23.30;70.10;;;;;;5094916;28;20101;-38
2021/07/04 08:24:27;;;;;;;22.15;19.10;;;22.60;72.70;;;;;;5094841;28;20024;-38
2021/07/04 08:26:54;;;;;;;21.30;18.02;;;22.10;75.20;;;;;;5094782;28;20032;-37
2021/07/04 08:29:20;;;;;;;18.33;16.00;;;22.60;73.50;;;;;;5094798;28;20109;-38
2021/07/04 08:31:45;;;;;;;21.10;16.40;;;22.60;73.30;;;;;;5094786;28;20052;-36
2021/07/04 08:34:11;;;;;;;19.52;14.75;;;24.20;68.30;;;;;;5094556;28;20052;-37
2021/07/04 08:36:37;;;;;;;18.27;14.45;;;24.30;66.10;;;;;;5094641;28;20031;-38
2021/07/04 08:39:04;;;;;;;16.98;15.10;;;23.90;67.90;;;;;;5095348;28;20103;-38
2021/07/04 08:41:30;;;;;;;17.27;15.45;;;23.40;69.40;;;;;;5095278;28;20024;-37
2021/07/04 08:43:56;;;;;;;16.08;13.95;;;24.00;67.80;;;;;;5076575;28;20384;-37
2021/07/04 08:46:21;;;;;;;16.15;14.05;;;24.20;67.30;;;;;;5095067;28;20027;-37
2021/07/04 08:48:47;;;;;;;16.23;13.05;;;24.50;65.90;;;;;;5076930;28;20100;-37
2021/07/04 08:51:13;;;;;;;13.43;12.13;;;23.20;69.70;;;;;;5076716;28;20372;-37
2021/07/04 08:53:39;;;;;;;17.67;12.82;;;23.30;68.50;;;;;;5093381;28;20032;-37
2021/07/04 08:56:06;;;;;;;14.10;12.07;;;23.00;69.80;;;;;;5077872;28;20121;-36
2021/07/04 08:58:32;;;;;;;17.23;12.80;;;22.80;70.50;;;;;;5094540;28;20084;-36
2021/07/04 09:01:13;;;;;;;14.43;12.45;;;24.80;65.20;;;;;;5094646;28;20024;-37
2021/07/04 09:03:43;;;;;;;13.70;11.63;;;25.10;62.70;;;;;;5094532;28;20028;-36
2021/07/04 09:06:09;;;;;;;12.48;10.77;;;24.60;63.40;;;;;;5094709;28;20058;-37
2021/07/04 09:08:36;;;;;;;12.55;10.40;;;25.20;61.70;;;;;;5076088;28;20120;-37
2021/07/04 09:11:18;;;;;;;13.73;11.98;;;24.90;62.30;;;;;;5094096;28;20062;-36
2021/07/04 09:13:47;;;;;;;15.68;12.00;;;24.30;65.20;;;;;;5094100;28;20028;-36
2021/07/04 09:16:15;;;;;;;17.08;12.68;;;24.50;65.30;;;;;;5094543;28;20040;-38
2021/07/04 09:18:42;;;;;;;13.35;11.75;;;24.80;64.20;;;;;;5076111;28;20023;-38
2021/07/04 09:21:24;;;;;;;14.43;12.80;;;24.30;65.20;;;;;;5094340;28;20103;-37
2021/07/04 09:23:51;;;;;;;13.35;11.45;;;24.60;64.20;;;;;;5094188;28;20028;-37
2021/07/04 09:26:40;;;;;;;15.75;11.45;;;24.50;64.30;;;;;;5094345;28;20016;-37
2021/07/04 09:29:07;;;;;;;15.93;10.43;;;25.80;61.20;;;;;;5094324;28;20391;-37
2021/07/04 09:31:33;;;;;;;12.10;10.20;;;26.00;60.20;;;;;;5075833;28;20415;-37
2021/07/04 09:34:10;;;;;;;14.85;11.55;;;26.70;59.30;;;;;;5093701;28;20048;-36
2021/07/04 09:36:38;;;;;;;11.95;9.23;;;27.20;57.20;;;;;;5094191;28;20028;-36
2021/07/04 09:39:22;;;;;;;13.68;10.32;;;28.80;52.60;;;;;;5093735;28;20028;-37
2021/07/04 09:42:08;;;;;;;11.65;10.45;;;29.40;49.90;;;;;;5093858;28;20024;-38
2021/07/04 09:44:35;;;;;;;9.73;7.68;;;29.20;50.70;;;;;;5093952;28;20024;-37
2021/07/04 09:47:30;;;;;;;8.68;7.80;;;27.40;54.10;;;;;;5093920;28;20353;-38
2021/07/04 09:50:04;;;;;;;9.60;7.55;;;27.00;53.70;;;;;;5072288;28;20384;-38
2021/07/04 09:52:30;;;;;;;8.43;7.22;;;25.10;59.00;;;;;;5093949;28;20035;-37
2021/07/04 09:55:05;;;;;;;9.35;7.57;;;25.20;58.20;;;;;;5093534;28;20024;-37
2021/07/04 09:57:52;;;;;;;10.38;8.48;;;25.80;59.00;;;;;;5094094;28;20468;-37
2021/07/04 10:00:19;;;;;;;10.52;7.45;;;25.40;59.30;;;;;;5093377;28;20105;-41
2021/07/04 10:03:14;;;;;;;8.70;7.07;;;27.00;55.10;;;;;;5075288;28;20024;-37
2021/07/04 10:05:56;;;;;;;12.45;8.93;;;27.80;51.20;;;;;;5093884;28;20024;-37
2021/07/04 10:08:33;;;;;;;7.20;6.50;;;27.40;52.20;;;;;;5093918;28;20028;-49
2021/07/04 10:10:59;;;;;;;11.75;7.82;;;26.70;53.10;;;;;;5093261;28;20024;-50
2021/07/04 10:13:25;;;;;;;11.10;7.13;;;26.30;54.70;;;;;;5093724;28;20080;-49
2021/07/04 10:15:51;;;;;;;8.05;5.80;;;26.50;54.30;;;;;;5093448;28;20432;-47
2021/07/04 10:18:18;;;;;;;8.00;5.30;;;26.30;54.30;;;;;;5093139;28;20048;-48
2021/07/04 10:20:44;;;;;;;9.75;6.60;;;27.70;50.90;;;;;;5093083;28;20025;-50
2021/07/04 10:23:16;;;;;;;6.95;6.20;;;26.40;54.50;;;;;;5094092;28;20359;-48
2021/07/04 10:25:43;;;;;;;14.70;11.00;;;25.70;57.80;;;;;;5074777;28;20161;-48
2021/07/04 10:28:11;;;;;;;17.73;11.95;;;25.10;63.70;;;;;;5093207;28;20077;-48
2021/07/04 10:30:37;;;;;;;14.45;12.52;;;24.30;68.80;;;;;;5093494;28;20027;-48
2021/07/04 10:33:21;;;;;;;16.52;12.13;;;23.80;71.30;;;;;;5093007;28;20020;-50
2021/07/04 10:36:06;;;;;;;15.15;12.43;;;24.00;69.60;;;;;;5091657;28;20071;-47
2021/07/04 10:38:51;;;;;;;13.65;12.05;;;23.70;72.80;;;;;;5096966;28;20032;-48
2021/07/04 10:41:23;;;;;;;21.33;11.57;;;23.20;75.70;;;;;;5097252;28;20020;-46
2021/07/04 10:44:05;;;;;;;13.18;11.25;;;24.00;71.20;;;;;;5079365;28;20119;-49
2021/07/04 10:46:43;;;;;;;13.75;11.50;;;23.60;73.50;;;;;;5098312;28;20012;-48
2021/07/04 10:49:31;;;;;;;12.82;10.88;;;24.40;70.50;;;;;;5097797;28;20030;-48
2021/07/04 10:52:03;;;;;;;13.10;11.68;;;24.90;68.90;;;;;;5098691;28;20027;-49
2021/07/04 10:54:45;;;;;;;14.23;12.73;;;24.70;71.90;;;;;;5097616;28;20367;-48
2021/07/04 10:57:32;;;;;;;14.48;12.93;;;24.70;70.10;;;;;;5097030;28;20024;-47
2021/07/04 11:00:01;;;;;;;14.88;13.27;;;24.30;70.20;;;;;;5078726;28;20032;-52
2021/07/04 11:02:59;;;;;;;16.58;13.48;;;24.20;69.90;;;;;;5096161;28;20020;-48
2021/07/04 11:05:38;;;;;;;13.30;11.95;;;24.80;69.20;;;;;;5097037;28;20028;-50
2021/07/04 11:08:16;;;;;;;14.63;12.17;;;26.70;60.90;;;;;;5096644;28;20084;-49
2021/07/04 11:11:04;;;;;;;11.18;9.98;;;27.40;59.30;;;;;;5062036;28;20150;-48
2021/07/04 11:13:41;;;;;;;15.05;11.68;;;28.00;55.00;;;;;;5096741;28;20023;-47
2021/07/04 11:16:18;;;;;;;15.57;11.20;;;27.50;56.40;;;;;;5082901;28;20022;-47
2021/07/04 11:19:09;;;;;;;10.93;9.88;;;27.80;56.90;;;;;;5078557;28;20467;-48
2021/07/04 11:21:58;;;;;;;13.95;12.48;;;28.40;54.40;;;;;;5084386;28;20036;-48
2021/07/04 11:24:27;;;;;;;12.60;9.95;;;27.80;55.00;;;;;;5096707;28;20028;-49
2021/07/04 11:27:25;;;;;;;10.68;9.55;;;27.10;55.50;;;;;;5096204;28;20020;-51
2021/07/04 11:30:29;;;;;;;10.98;8.30;;;27.30;53.90;;;;;;5095978;28;20039;-48
2021/07/04 11:33:36;;;;;;;12.63;11.32;;;27.90;51.80;;;;;;4998193;28;20031;-48
2021/07/04 11:36:14;;;;;;;15.02;12.20;;;26.50;57.20;;;;;;4967407;28;20096;-47
2021/07/04 11:38:49;;;;;;;17.92;14.02;;;24.90;61.30;;;;;;5079407;28;20040;-47
2021/07/04 11:41:20;;;;;;;16.30;14.15;;;24.40;64.60;;;;;;5096116;28;20035;-49
2021/07/04 11:43:47;;;;;;;16.20;12.82;;;24.20;66.30;;;;;;5095726;28;20032;-48
2021/07/04 11:46:15;;;;;;;12.43;11.10;;;24.10;64.80;;;;;;5096193;28;20052;-52
2021/07/04 11:48:55;;;;;;;12.63;10.68;;;24.00;64.60;;;;;;5094374;28;20020;-50
2021/07/04 11:51:31;;;;;;;15.65;13.25;;;24.00;64.00;;;;;;5095942;28;20024;-50
2021/07/04 11:54:05;;;;;;;13.73;12.32;;;23.90;64.90;;;;;;5095777;28;20036;-47
2021/07/04 11:56:31;;;;;;;19.45;15.55;;;23.80;66.10;;;;;;5095442;28;20045;-51
2021/07/04 11:59:07;;;;;;;17.77;15.88;;;23.80;67.50;;;;;;5095454;28;20024;-51
2021/07/04 12:01:45;;;;;;;22.77;16.70;;;23.50;69.90;;;;;;5095472;28;20557;-47
2021/07/04 12:04:11;;;;;;;27.05;19.88;;;23.50;70.50;;;;;;5095424;28;20028;-49
2021/07/04 12:06:52;;;;;;;20.02;17.58;;;23.30;74.40;;;;;;5095405;28;20429;-51
2021/07/04 12:09:18;;;;;;;18.60;15.80;;;22.70;75.90;;;;;;5095334;28;20468;-48
2021/07/04 12:11:46;;;;;;;20.02;16.65;;;22.40;77.10;;;;;;5095154;28;20031;-47
2021/07/04 12:14:22;;;;;;;18.60;16.65;;;22.40;78.00;;;;;;5095102;28;20333;-50
2021/07/04 12:16:50;;;;;;;24.98;20.10;;;22.30;78.90;;;;;;5095486;28;20028;-52
2021/07/04 12:19:34;;;;;;;21.38;18.85;;;22.10;80.80;;;;;;5095385;28;20032;-49
2021/07/04 12:22:02;;;;;;;21.27;18.23;;;21.80;82.60;;;;;;5095456;28;20032;-49
2021/07/04 12:24:41;;;;;;;20.70;18.27;;;21.60;81.30;;;;;;5095525;28;20038;-48
2021/07/04 12:27:07;;;;;;;27.08;20.45;;;21.30;82.60;;;;;;5095438;28;20072;-48
2021/07/04 12:30:07;;;;;;;29.70;24.73;;;21.00;84.60;;;;;;5094551;28;20024;-47
2021/07/04 12:32:45;;;;;;;33.10;25.13;;;20.80;87.70;;;;;;5094700;28;20020;-47
2021/07/04 12:35:26;;;;;;;35.33;26.02;;;20.60;88.40;;;;;;5094562;28;20120;-51
2021/07/04 12:37:53;;;;;;;38.70;27.67;;;20.20;89.90;;;;;;5095181;28;20024;-46